createdAt,value
2018-06-08T00:01:41.110Z,18.35
2018-06-08T00:04:09.953Z,18.35
2018-06-08T00:06:38.678Z,18.32
2018-06-08T00:09:09.214Z,18.27
2018-06-08T00:11:37.968Z,18.09
2018-06-08T00:14:06.710Z,18.09
2018-06-08T00:16:35.494Z,18.05
2018-06-08T00:19:04.213Z,18.06
2018-06-08T00:21:32.943Z,18.05
2018-06-08T00:24:01.699Z,17.98
2018-06-08T00:26:30.457Z,17.98
2018-06-08T00:28:59.168Z,17.96
2018-06-08T00:31:28.000Z,17.92
2018-06-08T00:33:56.731Z,17.91
2018-06-08T00:36:25.517Z,17.94
2018-06-08T00:38:54.274Z,17.96
2018-06-08T00:41:23.013Z,17.96
2018-06-08T00:43:51.739Z,17.92
2018-06-08T00:46:20.501Z,17.86
2018-06-08T00:48:49.229Z,17.87
2018-06-08T00:51:17.998Z,17.84
2018-06-08T00:53:46.762Z,17.87
2018-06-08T00:56:26.594Z,17.80
2018-06-08T00:58:55.345Z,17.77
2018-06-08T01:01:24.067Z,17.72
2018-06-08T01:03:52.795Z,17.71
2018-06-08T01:06:21.522Z,17.79
2018-06-08T01:08:50.318Z,17.80
2018-06-08T01:11:19.054Z,17.76
2018-06-08T01:13:47.851Z,17.71
2018-06-08T01:16:16.566Z,17.62
2018-06-08T01:18:45.282Z,17.59
2018-06-08T01:21:14.192Z,17.53
2018-06-08T01:23:42.894Z,17.47
2018-06-08T01:26:11.623Z,17.42
2018-06-08T01:28:40.441Z,17.42
2018-06-08T01:31:09.142Z,17.41
2018-06-08T01:33:37.852Z,17.37
2018-06-08T01:36:06.703Z,17.32
2018-06-08T01:38:35.401Z,17.31
2018-06-08T01:41:04.139Z,17.37
2018-06-08T01:43:32.887Z,17.35
2018-06-08T01:46:01.614Z,17.37
2018-06-08T01:48:30.329Z,17.34
2018-06-08T01:50:59.081Z,17.34
2018-06-08T01:53:27.892Z,17.36
2018-06-08T01:55:56.618Z,17.35
2018-06-08T01:58:25.425Z,17.39
2018-06-08T02:00:54.180Z,17.35
2018-06-08T02:03:22.926Z,17.33
2018-06-08T02:05:51.694Z,17.30
2018-06-08T02:08:20.423Z,17.32
2018-06-08T02:10:49.141Z,17.28
2018-06-08T02:13:17.910Z,17.24
2018-06-08T02:15:46.709Z,17.19
2018-06-08T02:18:15.485Z,17.11
2018-06-08T02:20:44.262Z,17.06
2018-06-08T02:23:13.033Z,17.08
2018-06-08T02:25:41.733Z,17.07
2018-06-08T02:28:10.540Z,17.02
2018-06-08T02:30:39.246Z,16.97
2018-06-08T02:33:08.002Z,17.10
2018-06-08T02:35:36.769Z,17.08
2018-06-08T02:38:05.519Z,16.96
2018-06-08T02:40:34.241Z,16.90
2018-06-08T02:43:02.973Z,16.95
2018-06-08T02:45:31.693Z,16.92
2018-06-08T02:48:00.397Z,16.85
2018-06-08T02:50:29.171Z,16.82
2018-06-08T02:52:57.870Z,16.75
2018-06-08T02:55:26.574Z,16.79
2018-06-08T02:57:55.311Z,16.77
2018-06-08T03:00:24.020Z,16.78
2018-06-08T03:02:52.746Z,16.81
2018-06-08T03:05:21.492Z,16.90
2018-06-08T03:07:50.209Z,16.96
2018-06-08T03:10:18.929Z,16.83
2018-06-08T03:12:47.923Z,17.06
2018-06-08T03:15:16.754Z,17.16
2018-06-08T03:17:45.678Z,17.19
2018-06-08T03:20:14.596Z,17.38
2018-06-08T03:22:43.293Z,17.42
2018-06-08T03:25:12.008Z,17.57
2018-06-08T03:27:40.720Z,17.67
2018-06-08T03:30:09.485Z,17.81
2018-06-08T03:32:38.187Z,18.53
2018-06-08T03:35:06.928Z,20.04
2018-06-08T03:37:35.781Z,21.56
2018-06-08T03:40:04.518Z,22.83
2018-06-08T03:42:33.249Z,23.85
2018-06-08T03:45:01.950Z,24.76
2018-06-08T03:47:30.697Z,25.94
2018-06-08T03:49:59.441Z,26.44
2018-06-08T03:52:28.170Z,26.93
2018-06-08T03:54:56.896Z,27.46
2018-06-08T03:57:25.742Z,27.63
2018-06-08T03:59:54.473Z,28.17
2018-06-08T04:02:23.256Z,28.65
2018-06-08T04:04:52.013Z,29.66
2018-06-08T04:07:20.742Z,30.30
2018-06-08T04:09:49.460Z,30.59
2018-06-08T04:12:18.227Z,31.37
2018-06-08T04:14:47.175Z,33.07
2018-06-08T04:17:15.898Z,32.99
2018-06-08T04:19:44.642Z,33.09
2018-06-08T04:22:13.355Z,33.59
2018-06-08T04:24:42.079Z,33.40
2018-06-08T04:27:10.847Z,32.84
2018-06-08T04:29:39.670Z,32.52
2018-06-08T04:32:08.374Z,32.23
2018-06-08T04:34:37.120Z,32.36
2018-06-08T04:37:05.873Z,32.68
2018-06-08T04:39:34.658Z,32.58
2018-06-08T04:42:03.401Z,32.85
2018-06-08T04:44:32.106Z,33.37
2018-06-08T04:47:00.803Z,33.57
2018-06-08T04:49:29.637Z,33.60
2018-06-08T04:51:58.356Z,33.90
2018-06-08T04:54:27.065Z,34.64
2018-06-08T04:56:55.814Z,35.30
2018-06-08T04:59:24.513Z,35.36
2018-06-08T05:01:53.233Z,36.11
2018-06-08T05:04:21.998Z,36.11
2018-06-08T05:06:50.719Z,35.37
2018-06-08T05:09:19.509Z,35.28
2018-06-08T05:11:48.236Z,35.30
2018-06-08T05:14:17.070Z,35.39
2018-06-08T05:16:45.781Z,36.33
2018-06-08T05:19:14.528Z,36.93
2018-06-08T05:21:43.372Z,37.00
2018-06-08T05:24:12.083Z,36.84
2018-06-08T05:26:40.821Z,36.28
2018-06-08T05:29:09.552Z,36.33
2018-06-08T05:31:38.277Z,36.16
2018-06-08T05:34:07.045Z,35.82
2018-06-08T05:36:35.757Z,36.40
2018-06-08T05:39:07.109Z,36.37
2018-06-08T05:41:36.044Z,37.68
2018-06-08T05:44:04.754Z,38.78
2018-06-08T05:46:33.521Z,39.25
2018-06-08T05:49:02.294Z,38.89
2018-06-08T05:51:31.017Z,39.57
2018-06-08T05:53:59.763Z,39.71
2018-06-08T05:56:28.473Z,39.14
2018-06-08T05:58:57.204Z,38.39
2018-06-08T06:01:25.994Z,38.70
2018-06-08T06:03:54.708Z,39.44
2018-06-08T06:06:23.430Z,39.71
2018-06-08T06:08:52.183Z,39.44
2018-06-08T06:11:20.906Z,38.59
2018-06-08T06:13:49.650Z,38.31
2018-06-08T06:16:18.440Z,38.80
2018-06-08T06:18:47.170Z,39.89
2018-06-08T06:21:15.919Z,39.75
2018-06-08T06:23:44.652Z,38.96
2018-06-08T06:26:13.368Z,39.22
2018-06-08T06:28:42.122Z,39.00
2018-06-08T06:31:11.189Z,40.15
2018-06-08T06:33:39.912Z,39.56
2018-06-08T06:36:08.627Z,39.75
2018-06-08T06:38:37.370Z,39.89
2018-06-08T06:41:06.057Z,40.73
2018-06-08T06:43:34.763Z,40.75
2018-06-08T06:46:03.506Z,40.53
2018-06-08T06:48:32.213Z,40.85
2018-06-08T06:51:01.931Z,41.21
2018-06-08T06:53:30.650Z,42.46
2018-06-08T06:55:59.349Z,42.09
2018-06-08T06:58:28.045Z,42.43
2018-06-08T07:00:56.846Z,42.13
2018-06-08T07:03:25.522Z,41.28
2018-06-08T07:05:54.201Z,41.42
2018-06-08T07:08:23.335Z,41.13
2018-06-08T07:10:52.280Z,41.19
2018-06-08T07:13:21.040Z,41.31
2018-06-08T07:15:49.798Z,42.16
2018-06-08T07:18:18.520Z,42.77
2018-06-08T07:20:47.244Z,42.74
2018-06-08T07:23:16.055Z,41.73
2018-06-08T07:25:44.799Z,41.98
2018-06-08T07:28:13.553Z,42.51
2018-06-08T07:30:42.287Z,41.73
2018-06-08T07:33:11.006Z,41.85
2018-06-08T07:35:39.719Z,41.97
2018-06-08T07:38:08.474Z,41.71
2018-06-08T07:40:37.178Z,42.23
2018-06-08T07:43:05.902Z,41.65
2018-06-08T07:45:34.644Z,41.18
2018-06-08T07:48:03.374Z,39.40
2018-06-08T07:50:32.125Z,39.47
2018-06-08T07:53:00.975Z,39.59
2018-06-08T07:55:29.710Z,39.57
2018-06-08T07:57:58.435Z,39.40
2018-06-08T08:00:27.217Z,40.13
2018-06-08T08:02:55.959Z,39.81
2018-06-08T08:05:24.712Z,38.63
2018-06-08T08:07:53.505Z,37.93
2018-06-08T08:10:22.256Z,38.36
2018-06-08T08:12:51.006Z,39.45
2018-06-08T08:15:19.830Z,39.97
2018-06-08T08:17:48.542Z,40.03
2018-06-08T08:20:17.243Z,41.04
2018-06-08T08:22:45.966Z,41.44
2018-06-08T08:25:14.713Z,41.07
2018-06-08T08:27:43.402Z,40.93
2018-06-08T08:30:12.302Z,41.49
2018-06-08T08:32:40.994Z,40.89
2018-06-08T08:35:09.782Z,41.48
2018-06-08T08:37:38.531Z,40.95
2018-06-08T08:40:07.253Z,41.12
2018-06-08T08:42:35.979Z,41.91
2018-06-08T08:45:04.816Z,42.11
2018-06-08T08:47:34.416Z,42.22
2018-06-08T08:50:03.109Z,42.64
2018-06-08T08:52:31.843Z,42.10
2018-06-08T08:55:00.586Z,41.48
2018-06-08T08:57:29.291Z,41.54
2018-06-08T08:59:58.006Z,41.02
2018-06-08T09:02:26.694Z,40.91
2018-06-08T09:04:55.408Z,41.01
2018-06-08T09:07:24.142Z,40.61
2018-06-08T09:09:52.837Z,40.22
2018-06-08T09:12:21.532Z,41.10
2018-06-08T09:14:50.270Z,40.89
2018-06-08T09:17:18.970Z,40.87
2018-06-08T09:19:47.688Z,41.77
2018-06-08T09:22:16.422Z,42.28
2018-06-08T09:24:45.105Z,42.48
2018-06-08T09:27:13.794Z,41.90
2018-06-08T09:29:42.543Z,40.83
2018-06-08T09:32:11.336Z,41.20
2018-06-08T09:34:40.030Z,40.23
2018-06-08T09:37:08.761Z,40.93
2018-06-08T09:39:37.456Z,40.84
2018-06-08T09:42:06.246Z,41.14
2018-06-08T09:44:35.041Z,40.87
2018-06-08T09:47:03.762Z,41.27
2018-06-08T09:49:32.650Z,40.49
2018-06-08T09:52:01.394Z,40.18
2018-06-08T09:54:30.123Z,40.47
2018-06-08T09:56:58.829Z,40.52
2018-06-08T09:59:27.561Z,40.23
2018-06-08T10:01:56.269Z,39.24
2018-06-08T10:04:25.041Z,40.00
2018-06-08T10:06:53.770Z,40.54
2018-06-08T10:09:22.487Z,40.81
2018-06-08T10:11:51.223Z,40.70
2018-06-08T10:14:20.013Z,41.68
2018-06-08T10:16:48.875Z,41.26
2018-06-08T10:19:17.577Z,42.25
2018-06-08T10:21:46.297Z,42.32
2018-06-08T10:24:14.981Z,42.20
2018-06-08T10:26:43.881Z,42.12
2018-06-08T10:29:12.606Z,42.85
2018-06-08T10:31:41.298Z,42.31
2018-06-08T10:34:09.974Z,42.04
2018-06-08T10:36:38.698Z,42.18
2018-06-08T10:39:08.197Z,41.57
2018-06-08T10:41:36.914Z,40.99
2018-06-08T10:44:05.649Z,39.26
2018-06-08T10:46:34.368Z,38.19
2018-06-08T10:49:03.106Z,37.83
2018-06-08T10:51:31.836Z,38.50
2018-06-08T10:54:00.542Z,39.06
2018-06-08T10:56:29.247Z,38.77
2018-06-08T10:58:57.994Z,37.23
2018-06-08T11:01:26.693Z,38.89
2018-06-08T11:03:55.710Z,39.53
2018-06-08T11:06:24.433Z,39.83
2018-06-08T11:08:53.121Z,39.85
2018-06-08T11:11:21.825Z,39.96
2018-06-08T11:13:50.554Z,39.51
2018-06-08T11:16:19.269Z,38.59
2018-06-08T11:18:47.970Z,37.07
2018-06-08T11:21:16.745Z,35.99
2018-06-08T11:23:45.441Z,36.73
2018-06-08T11:26:14.166Z,37.83
2018-06-08T11:28:42.969Z,38.23
2018-06-08T11:31:12.273Z,38.85
2018-06-08T11:33:40.974Z,39.81
2018-06-08T11:36:09.717Z,41.35
2018-06-08T11:38:38.404Z,41.95
2018-06-08T11:41:07.097Z,42.31
2018-06-08T11:43:35.897Z,42.27
2018-06-08T11:46:04.834Z,42.35
2018-06-08T11:48:33.527Z,42.08
2018-06-08T11:51:02.269Z,41.41
2018-06-08T11:53:30.952Z,42.71
2018-06-08T11:55:59.730Z,42.35
2018-06-08T11:58:28.442Z,41.35
2018-06-08T12:00:57.137Z,41.23
2018-06-08T12:03:25.825Z,40.81
2018-06-08T12:05:54.540Z,42.09
2018-06-08T12:08:23.213Z,40.86
2018-06-08T12:10:51.903Z,41.00
2018-06-08T12:13:20.609Z,40.83
2018-06-08T12:15:49.332Z,40.61
2018-06-08T12:18:18.183Z,40.71
2018-06-08T12:20:47.070Z,41.15
2018-06-08T12:23:15.755Z,41.36
2018-06-08T12:25:44.445Z,41.53
2018-06-08T12:28:13.183Z,39.49
2018-06-08T12:30:41.926Z,37.93
2018-06-08T12:33:10.651Z,36.52
2018-06-08T12:35:39.590Z,36.28
2018-06-08T12:38:08.347Z,35.93
2018-06-08T12:40:37.057Z,35.99
2018-06-08T12:43:05.773Z,35.57
2018-06-08T12:45:34.485Z,35.73
2018-06-08T12:48:03.234Z,35.87
2018-06-08T12:50:31.977Z,35.81
2018-06-08T12:53:00.686Z,35.58
2018-06-08T12:55:29.388Z,35.11
2018-06-08T12:57:58.169Z,35.09
2018-06-08T13:00:26.889Z,35.23
2018-06-08T13:02:55.638Z,35.43
2018-06-08T13:05:24.445Z,35.52
2018-06-08T13:07:53.191Z,35.31
2018-06-08T13:10:21.927Z,35.07
2018-06-08T13:12:50.687Z,35.03
2018-06-08T13:15:19.421Z,34.99
2018-06-08T13:17:48.305Z,34.83
2018-06-08T13:20:17.178Z,34.15
2018-06-08T13:22:45.973Z,34.45
2018-06-08T13:25:14.715Z,34.61
2018-06-08T13:27:43.478Z,34.28
2018-06-08T13:30:12.202Z,34.18
2018-06-08T13:32:41.349Z,33.96
2018-06-08T13:35:10.086Z,33.58
2018-06-08T13:37:38.849Z,33.55
2018-06-08T13:40:07.743Z,33.32
2018-06-08T13:42:36.534Z,33.20
2018-06-08T13:45:05.676Z,33.33
2018-06-08T13:47:34.573Z,33.57
2018-06-08T13:50:03.358Z,33.66
2018-06-08T13:52:32.064Z,33.47
2018-06-08T13:55:00.796Z,33.52
2018-06-08T13:57:29.666Z,33.43
2018-06-08T13:59:58.547Z,33.57
2018-06-08T14:02:27.274Z,33.63
2018-06-08T14:04:56.034Z,33.32
2018-06-08T14:07:24.745Z,33.44
2018-06-08T14:09:53.590Z,33.37
2018-06-08T14:12:22.322Z,32.91
2018-06-08T14:14:51.032Z,32.97
2018-06-08T14:17:19.737Z,33.01
2018-06-08T14:19:48.543Z,32.98
2018-06-08T14:22:17.445Z,33.02
2018-06-08T14:24:46.173Z,33.09
2018-06-08T14:27:16.063Z,33.09
2018-06-08T14:29:44.781Z,32.87
2018-06-08T14:32:13.470Z,32.78
2018-06-08T14:34:42.349Z,32.75
2018-06-08T14:37:11.083Z,32.61
2018-06-08T14:39:39.827Z,32.32
2018-06-08T14:42:08.598Z,32.35
2018-06-08T14:44:37.316Z,32.33
2018-06-08T14:47:06.029Z,32.26
2018-06-08T14:49:35.894Z,32.33
2018-06-08T14:52:04.617Z,32.23
2018-06-08T14:54:33.304Z,31.86
2018-06-08T14:57:02.042Z,31.98
2018-06-08T14:59:30.742Z,31.74
2018-06-08T15:01:59.593Z,31.66
2018-06-08T15:04:28.522Z,31.72
2018-06-08T15:06:57.236Z,31.63
2018-06-08T15:09:25.952Z,31.58
2018-06-08T15:11:54.688Z,31.64
2018-06-08T15:14:23.406Z,31.55
2018-06-08T15:16:52.141Z,31.66
2018-06-08T15:19:20.910Z,31.80
2018-06-08T15:21:49.677Z,31.80
2018-06-08T15:24:18.576Z,31.69
2018-06-08T15:26:47.482Z,31.60
2018-06-08T15:29:16.205Z,31.38
2018-06-08T15:31:44.945Z,31.48
2018-06-08T15:34:13.681Z,31.54
2018-06-08T15:36:42.385Z,31.36
2018-06-08T15:39:11.089Z,31.12
2018-06-08T15:41:39.829Z,31.10
2018-06-08T15:44:08.517Z,31.10
2018-06-08T15:46:37.213Z,31.03
2018-06-08T15:49:05.966Z,30.92
2018-06-08T15:51:34.669Z,31.02
2018-06-08T15:54:03.378Z,30.89
2018-06-08T15:56:32.154Z,30.62
2018-06-08T15:59:01.026Z,30.56
2018-06-08T16:01:29.745Z,30.68
2018-06-08T16:03:58.479Z,30.77
2018-06-08T16:06:27.189Z,30.73
2018-06-08T16:08:55.899Z,30.70
2018-06-08T16:11:24.640Z,30.76
2018-06-08T16:13:53.353Z,30.95
2018-06-08T16:16:22.055Z,30.91
2018-06-08T16:18:50.807Z,30.86
2018-06-08T16:21:19.500Z,30.81
2018-06-08T16:23:48.245Z,30.66
2018-06-08T16:26:17.006Z,30.43
2018-06-08T16:28:45.750Z,30.61
2018-06-08T16:31:14.529Z,30.54
2018-06-08T16:33:43.248Z,30.50
2018-06-08T16:36:11.998Z,30.46
2018-06-08T16:38:40.682Z,30.53
2018-06-08T16:41:09.421Z,30.56
2018-06-08T16:43:38.170Z,30.63
2018-06-08T16:46:06.894Z,30.66
2018-06-08T16:48:35.633Z,30.41
2018-06-08T16:51:04.337Z,30.34
2018-06-08T16:53:33.351Z,30.27
2018-06-08T16:56:02.118Z,30.05
2018-06-08T16:58:30.818Z,29.99
2018-06-08T17:00:59.532Z,29.89
2018-06-08T17:03:28.284Z,29.89
2018-06-08T17:05:57.117Z,29.80
2018-06-08T17:08:25.837Z,29.70
2018-06-08T17:10:54.577Z,29.61
2018-06-08T17:13:23.294Z,29.53
2018-06-08T17:15:52.002Z,29.46
2018-06-08T17:18:20.762Z,29.39
2018-06-08T17:20:49.477Z,29.30
2018-06-08T17:23:18.205Z,29.19
2018-06-08T17:25:46.952Z,29.07
2018-06-08T17:28:15.652Z,29.00
2018-06-08T17:30:44.353Z,28.93
2018-06-08T17:33:13.089Z,28.84
2018-06-08T17:35:41.785Z,28.81
2018-06-08T17:38:10.512Z,28.72
2018-06-08T17:40:39.335Z,28.62
2018-06-08T17:43:08.039Z,28.57
2018-06-08T17:45:36.779Z,28.45
2018-06-08T17:48:05.762Z,28.37
2018-06-08T17:50:34.497Z,28.28
2018-06-08T17:53:03.238Z,28.13
2018-06-08T17:55:32.046Z,27.98
2018-06-08T17:58:00.882Z,27.90
2018-06-08T18:00:29.578Z,27.82
2018-06-08T18:02:58.369Z,27.77
2018-06-08T18:05:27.139Z,27.75
2018-06-08T18:07:55.865Z,27.67
2018-06-08T18:10:24.615Z,27.79
2018-06-08T18:12:53.417Z,27.73
2018-06-08T18:15:22.152Z,27.67
2018-06-08T18:17:50.992Z,27.63
2018-06-08T18:20:19.692Z,27.54
2018-06-08T18:22:48.558Z,27.52
2018-06-08T18:25:18.095Z,27.54
2018-06-08T18:27:46.842Z,27.55
2018-06-08T18:30:15.540Z,27.51
2018-06-08T18:32:44.793Z,27.50
2018-06-08T18:35:13.669Z,27.56
2018-06-08T18:37:42.510Z,27.47
2018-06-08T18:40:11.288Z,27.44
2018-06-08T18:42:39.982Z,27.40
2018-06-08T18:45:08.695Z,27.51
2018-06-08T18:47:37.553Z,27.46
2018-06-08T18:50:06.248Z,27.35
2018-06-08T18:52:35.110Z,27.24
2018-06-08T18:55:03.885Z,27.20
2018-06-08T18:57:32.606Z,27.15
2018-06-08T19:00:01.335Z,27.24
2018-06-08T19:02:30.385Z,27.28
2018-06-08T19:04:59.097Z,27.17
2018-06-08T19:07:27.827Z,27.09
2018-06-08T19:09:56.602Z,27.00
2018-06-08T19:12:25.319Z,27.05
2018-06-08T19:14:54.034Z,27.09
2018-06-08T19:17:22.757Z,27.06
2018-06-08T19:19:51.518Z,26.91
2018-06-08T19:22:20.226Z,26.93
2018-06-08T19:24:49.043Z,26.96
2018-06-08T19:27:17.770Z,27.03
2018-06-08T19:29:46.537Z,26.89
2018-06-08T19:32:15.280Z,26.75
2018-06-08T19:34:44.121Z,26.64
2018-06-08T19:37:12.963Z,26.53
2018-06-08T19:39:41.736Z,26.35
2018-06-08T19:42:10.439Z,26.18
2018-06-08T19:44:39.134Z,25.98
2018-06-08T19:47:07.882Z,25.89
2018-06-08T19:49:36.573Z,25.59
2018-06-08T19:52:05.655Z,25.80
2018-06-08T19:54:34.441Z,25.80
2018-06-08T19:57:03.178Z,25.87
2018-06-08T19:59:31.911Z,25.70
2018-06-08T20:02:00.690Z,25.65
2018-06-08T20:04:29.445Z,25.54
2018-06-08T20:06:58.261Z,25.59
2018-06-08T20:09:27.009Z,25.52
2018-06-08T20:12:07.671Z,25.46
2018-06-08T20:14:36.568Z,25.47
2018-06-08T20:17:05.294Z,25.43
2018-06-08T20:19:34.015Z,25.65
2018-06-08T20:22:02.789Z,25.38
2018-06-08T20:24:31.514Z,25.73
2018-06-08T20:27:00.289Z,25.75
2018-06-08T20:29:29.061Z,25.72
2018-06-08T20:31:57.832Z,25.51
2018-06-08T20:34:26.614Z,25.49
2018-06-08T20:36:55.390Z,25.34
2018-06-08T20:39:24.121Z,25.22
2018-06-08T20:41:52.930Z,25.30
2018-06-08T20:44:21.702Z,25.27
2018-06-08T20:46:50.634Z,25.22
2018-06-08T20:49:19.455Z,25.23
2018-06-08T20:51:48.238Z,25.13
2018-06-08T20:54:17.003Z,25.00
2018-06-08T20:56:45.793Z,24.97
2018-06-08T20:59:14.730Z,24.98
2018-06-08T21:01:43.488Z,24.90
2018-06-08T21:04:12.247Z,24.82
2018-06-08T21:06:41.032Z,24.86
2018-06-08T21:09:10.043Z,24.86
2018-06-08T21:11:38.809Z,24.95
2018-06-08T21:14:07.631Z,24.77
2018-06-08T21:16:36.412Z,24.54
2018-06-08T21:19:05.161Z,24.43
2018-06-08T21:21:33.920Z,24.29
2018-06-08T21:24:02.642Z,24.13
2018-06-08T21:26:31.365Z,23.97
2018-06-08T21:29:00.140Z,23.86
2018-06-08T21:31:28.983Z,23.77
2018-06-08T21:33:57.741Z,23.78
2018-06-08T21:36:26.657Z,23.70
2018-06-08T21:38:55.408Z,23.58
2018-06-08T21:41:24.211Z,23.53
2018-06-08T21:43:52.978Z,23.54
2018-06-08T21:46:21.727Z,23.59
2018-06-08T21:48:50.510Z,23.74
2018-06-08T21:51:19.263Z,24.03
2018-06-08T21:53:47.999Z,24.16
2018-06-08T21:56:17.502Z,24.15
2018-06-08T21:58:46.284Z,23.97
2018-06-08T22:01:15.138Z,23.87
2018-06-08T22:03:43.870Z,23.85
2018-06-08T22:06:12.718Z,23.82
2018-06-08T22:08:41.493Z,23.81
2018-06-08T22:11:10.387Z,24.00
2018-06-08T22:13:39.233Z,24.27
2018-06-08T22:16:08.086Z,24.56
2018-06-08T22:18:36.923Z,24.62
2018-06-08T22:21:05.734Z,24.57
2018-06-08T22:23:34.541Z,24.54
2018-06-08T22:26:03.384Z,24.61
2018-06-08T22:28:32.141Z,24.77
2018-06-08T22:31:00.976Z,24.88
2018-06-08T22:33:29.739Z,24.99
2018-06-08T22:35:58.622Z,24.91
2018-06-08T22:38:27.407Z,24.87
2018-06-08T22:40:56.233Z,24.72
2018-06-08T22:43:25.151Z,24.75
2018-06-08T22:45:53.928Z,24.68
2018-06-08T22:48:22.633Z,24.65
2018-06-08T22:50:51.350Z,24.67
2018-06-08T22:53:20.054Z,24.72
2018-06-08T22:55:48.766Z,24.93
2018-06-08T22:58:17.493Z,25.05
2018-06-08T23:00:46.186Z,25.06
2018-06-08T23:03:14.904Z,25.02
2018-06-08T23:05:43.646Z,24.90
2018-06-08T23:08:12.353Z,24.98
2018-06-08T23:10:41.086Z,24.96
2018-06-08T23:13:09.822Z,24.88
2018-06-08T23:15:38.531Z,24.88
2018-06-08T23:18:07.238Z,24.97
2018-06-08T23:20:35.965Z,24.93
2018-06-08T23:23:04.727Z,25.05
2018-06-08T23:25:33.453Z,25.00
2018-06-08T23:28:02.316Z,25.04
2018-06-08T23:30:31.042Z,24.97
2018-06-08T23:32:59.799Z,24.91
2018-06-08T23:35:28.567Z,24.95
2018-06-08T23:37:57.322Z,24.96
2018-06-08T23:40:26.065Z,24.93
2018-06-08T23:42:59.237Z,24.87
2018-06-08T23:45:27.945Z,24.86
2018-06-08T23:47:56.736Z,24.83
2018-06-08T23:50:25.420Z,24.81
2018-06-08T23:52:54.115Z,24.70
2018-06-08T23:55:23.081Z,24.69
2018-06-08T23:57:51.826Z,24.63
